createdAt,value
2023-11-16T00:00:13.595Z,43.43
2023-11-16T00:02:45.553Z,43.47
2023-11-16T00:05:17.970Z,43.52
2023-11-16T00:07:49.765Z,43.55
2023-11-16T00:10:21.901Z,43.56
2023-11-16T00:12:56.611Z,43.62
2023-11-16T00:15:29.432Z,43.65
2023-11-16T00:18:04.789Z,43.75
2023-11-16T00:20:39.245Z,43.73
2023-11-16T00:23:10.971Z,43.69
2023-11-16T00:25:42.614Z,43.82
2023-11-16T00:28:16.058Z,43.86
2023-11-16T00:30:48.507Z,43.95
2023-11-16T00:33:20.238Z,43.97
2023-11-16T00:35:52.774Z,44.05
2023-11-16T00:38:27.195Z,44.12
2023-11-16T00:40:58.857Z,44.20
2023-11-16T00:43:30.492Z,44.28
2023-11-16T00:46:05.942Z,44.33
2023-11-16T00:48:37.714Z,44.38
2023-11-16T00:51:09.689Z,44.46
2023-11-16T00:53:44.306Z,44.52
2023-11-16T00:56:16.762Z,44.56
2023-11-16T00:58:49.269Z,44.59
2023-11-16T01:01:21.158Z,44.66
2023-11-16T01:03:54.499Z,44.74
2023-11-16T01:06:28.344Z,44.74
2023-11-16T01:09:00.720Z,44.78
2023-11-16T01:11:33.181Z,44.84
2023-11-16T01:14:05.093Z,44.89
2023-11-16T01:16:43.286Z,44.93
2023-11-16T01:19:17.764Z,44.98
2023-11-16T01:21:56.129Z,44.97
2023-11-16T01:24:30.078Z,45.03
2023-11-16T01:27:16.896Z,45.08
2023-11-16T01:29:48.635Z,45.10
2023-11-16T01:32:20.520Z,45.12
2023-11-16T01:34:52.391Z,45.20
2023-11-16T01:37:24.429Z,45.18
2023-11-16T01:39:57.017Z,45.21
2023-11-16T01:42:28.725Z,45.23
2023-11-16T01:45:00.414Z,45.27
2023-11-16T01:47:32.452Z,45.34
2023-11-16T01:50:05.084Z,45.37
2023-11-16T01:52:36.849Z,45.38
2023-11-16T01:55:08.933Z,45.46
2023-11-16T01:57:40.724Z,45.51
2023-11-16T02:00:16.366Z,45.59
2023-11-16T02:02:48.861Z,45.64
2023-11-16T02:05:20.637Z,45.65
2023-11-16T02:07:52.344Z,45.75
2023-11-16T02:10:24.031Z,45.74
2023-11-16T02:12:55.723Z,45.74
2023-11-16T02:15:29.117Z,45.85
2023-11-16T02:18:01.049Z,45.83
2023-11-16T02:20:32.827Z,45.89
2023-11-16T02:23:05.451Z,45.90
2023-11-16T02:25:51.468Z,45.91
2023-11-16T02:28:24.114Z,46.00
2023-11-16T02:30:58.991Z,46.00
2023-11-16T02:33:31.603Z,46.00
2023-11-16T02:36:04.700Z,46.02
2023-11-16T02:38:36.450Z,46.07
2023-11-16T02:41:10.882Z,46.11
2023-11-16T02:43:42.523Z,46.12
2023-11-16T02:46:14.281Z,46.15
2023-11-16T02:48:46.297Z,46.20
2023-11-16T02:51:18.024Z,46.23
2023-11-16T02:53:50.132Z,46.20
2023-11-16T02:56:21.771Z,46.28
2023-11-16T02:58:53.434Z,46.30
2023-11-16T03:01:25.181Z,46.36
2023-11-16T03:03:57.032Z,46.40
2023-11-16T03:06:29.045Z,46.40
2023-11-16T03:09:00.711Z,46.46
2023-11-16T03:11:33.859Z,46.49
2023-11-16T03:14:05.525Z,46.55
2023-11-16T03:16:47.255Z,46.55
2023-11-16T03:19:19.551Z,46.63
2023-11-16T03:21:51.389Z,46.64
2023-11-16T03:24:23.803Z,46.69
2023-11-16T03:26:56.779Z,46.70
2023-11-16T03:29:30.712Z,46.77
2023-11-16T03:32:02.671Z,46.86
2023-11-16T03:34:35.324Z,46.78
2023-11-16T03:37:07.005Z,46.80
2023-11-16T03:39:38.670Z,46.86
2023-11-16T03:42:10.357Z,46.88
2023-11-16T03:44:42.177Z,46.97
2023-11-16T03:47:14.133Z,47.03
2023-11-16T03:49:45.802Z,47.08
2023-11-16T03:52:17.663Z,47.13
2023-11-16T03:54:49.312Z,47.18
2023-11-16T03:57:20.983Z,47.19
2023-11-16T03:59:53.648Z,47.23
2023-11-16T04:02:25.758Z,47.26
2023-11-16T04:04:58.192Z,47.30
2023-11-16T04:07:29.845Z,47.34
2023-11-16T04:10:02.579Z,47.37
2023-11-16T04:12:34.349Z,47.39
2023-11-16T04:15:07.718Z,47.42
2023-11-16T04:17:39.875Z,47.46
2023-11-16T04:20:12.734Z,47.49
2023-11-16T04:22:44.663Z,47.50
2023-11-16T04:25:31.068Z,47.55
2023-11-16T04:28:05.661Z,47.62
2023-11-16T04:30:37.489Z,47.63
2023-11-16T04:33:09.618Z,47.60
2023-11-16T04:35:41.316Z,47.69
2023-11-16T04:38:13.405Z,47.70
2023-11-16T04:40:45.152Z,47.74
2023-11-16T04:43:17.318Z,47.76
2023-11-16T04:45:51.690Z,47.81
2023-11-16T04:48:23.628Z,47.81
2023-11-16T04:50:57.125Z,47.87
2023-11-16T04:53:29.164Z,47.89
2023-11-16T04:56:01.018Z,47.91
2023-11-16T04:58:33.209Z,47.94
2023-11-16T05:01:06.944Z,47.97
2023-11-16T05:03:40.734Z,48.02
2023-11-16T05:06:13.881Z,48.05
2023-11-16T05:08:45.779Z,48.02
2023-11-16T05:11:24.502Z,48.01
2023-11-16T05:13:56.266Z,48.05
2023-11-16T05:16:28.833Z,48.13
2023-11-16T05:19:00.778Z,48.24
2023-11-16T05:21:32.748Z,48.27
2023-11-16T05:24:04.758Z,48.34
2023-11-16T05:26:39.285Z,48.41
2023-11-16T05:29:10.959Z,48.51
2023-11-16T05:31:42.725Z,48.55
2023-11-16T05:34:15.496Z,48.57
2023-11-16T05:36:47.531Z,48.58
2023-11-16T05:39:20.955Z,48.56
2023-11-16T05:41:52.692Z,48.55
2023-11-16T05:44:24.417Z,48.46
2023-11-16T05:46:56.479Z,48.45
2023-11-16T05:49:30.072Z,48.36
2023-11-16T05:52:03.598Z,48.28
2023-11-16T05:54:37.300Z,48.18
2023-11-16T05:57:09.395Z,48.15
2023-11-16T05:59:41.724Z,48.02
2023-11-16T06:02:13.365Z,47.93
2023-11-16T06:04:45.101Z,47.82
2023-11-16T06:07:18.021Z,47.71
2023-11-16T06:09:49.745Z,47.65
2023-11-16T06:12:21.448Z,47.51
2023-11-16T06:14:57.002Z,47.40
2023-11-16T06:17:28.672Z,47.30
2023-11-16T06:20:00.353Z,47.19
2023-11-16T06:22:32.015Z,47.09
2023-11-16T06:25:06.009Z,46.98
2023-11-16T06:27:39.010Z,46.87
2023-11-16T06:30:14.513Z,46.78
2023-11-16T06:32:46.608Z,46.67
2023-11-16T06:35:18.318Z,46.56
2023-11-16T06:37:49.984Z,46.44
2023-11-16T06:40:21.711Z,46.35
2023-11-16T06:42:54.424Z,46.24
2023-11-16T06:45:28.315Z,46.12
2023-11-16T06:48:02.221Z,45.96
2023-11-16T06:50:35.444Z,45.89
2023-11-16T06:53:10.165Z,45.78
2023-11-16T06:55:44.581Z,45.66
2023-11-16T06:58:18.030Z,45.56
2023-11-16T07:00:56.175Z,45.46
2023-11-16T07:03:28.263Z,45.34
2023-11-16T07:06:00.439Z,45.25
2023-11-16T07:08:32.088Z,45.15
2023-11-16T07:11:03.917Z,45.06
2023-11-16T07:13:37.516Z,44.96
2023-11-16T07:16:09.947Z,44.82
2023-11-16T07:18:41.682Z,44.73
2023-11-16T07:21:13.508Z,44.62
2023-11-16T07:23:45.176Z,44.52
2023-11-16T07:26:19.750Z,44.42
2023-11-16T07:28:51.460Z,44.31
2023-11-16T07:31:23.346Z,44.22
2023-11-16T07:33:55.887Z,44.14
2023-11-16T07:36:28.336Z,44.02
2023-11-16T07:39:00.091Z,43.96
2023-11-16T07:41:32.085Z,43.88
2023-11-16T07:44:03.902Z,43.82
2023-11-16T07:46:36.432Z,43.72
2023-11-16T07:49:10.400Z,43.65
2023-11-16T07:51:42.211Z,43.64
2023-11-16T07:54:17.012Z,43.64
2023-11-16T07:56:56.683Z,43.55
2023-11-16T07:59:36.062Z,43.48
2023-11-16T08:02:08.961Z,43.38
2023-11-16T08:04:40.766Z,43.24
2023-11-16T08:07:12.792Z,43.17
2023-11-16T08:09:47.279Z,43.10
2023-11-16T08:12:19.597Z,43.07
2023-11-16T08:14:53.207Z,43.01
2023-11-16T08:17:26.030Z,42.98
2023-11-16T08:19:58.645Z,43.03
2023-11-16T08:22:30.279Z,43.11
2023-11-16T08:25:02.735Z,43.18
2023-11-16T08:27:34.573Z,43.23
2023-11-16T08:30:09.584Z,43.23
2023-11-16T08:32:41.658Z,43.20
2023-11-16T08:35:14.845Z,43.18
2023-11-16T08:37:46.561Z,43.16
2023-11-16T08:40:19.481Z,43.10
2023-11-16T08:42:52.478Z,43.05
2023-11-16T08:45:27.238Z,42.99
2023-11-16T08:48:01.007Z,42.91
2023-11-16T08:50:34.606Z,42.83
2023-11-16T08:53:08.986Z,42.76
2023-11-16T08:55:40.926Z,42.68
2023-11-16T08:58:12.709Z,42.59
2023-11-16T09:00:48.661Z,42.47
2023-11-16T09:03:20.546Z,42.39
2023-11-16T09:05:54.785Z,42.29
2023-11-16T09:08:26.488Z,42.19
2023-11-16T09:10:58.821Z,42.09
2023-11-16T09:13:31.054Z,42.01
2023-11-16T09:16:02.713Z,41.89
2023-11-16T09:18:34.606Z,41.81
2023-11-16T09:21:07.696Z,41.70
2023-11-16T09:23:39.466Z,41.37
2023-11-16T09:26:12.466Z,40.85
2023-11-16T09:28:54.348Z,40.62
2023-11-16T09:31:34.315Z,40.60
2023-11-16T09:34:06.325Z,40.59
2023-11-16T09:36:38.757Z,40.48
2023-11-16T09:39:10.414Z,40.42
2023-11-16T09:41:47.345Z,40.33
2023-11-16T09:44:20.122Z,40.23
2023-11-16T09:46:53.866Z,40.20
2023-11-16T09:49:25.768Z,40.13
2023-11-16T09:52:00.778Z,40.20
2023-11-16T09:54:33.954Z,40.20
2023-11-16T09:57:08.267Z,40.20
2023-11-16T09:59:44.433Z,40.18
2023-11-16T10:02:19.815Z,40.18
2023-11-16T10:04:54.493Z,40.21
2023-11-16T10:07:27.877Z,40.20
2023-11-16T10:09:59.586Z,40.19
2023-11-16T10:12:32.614Z,40.25
2023-11-16T10:15:15.775Z,40.23
2023-11-16T10:17:53.758Z,40.19
2023-11-16T10:20:25.392Z,40.20
2023-11-16T10:22:56.930Z,40.22
2023-11-16T10:25:29.560Z,40.21
2023-11-16T10:28:01.841Z,40.15
2023-11-16T10:30:35.692Z,40.10
2023-11-16T10:33:10.998Z,40.11
2023-11-16T10:35:48.144Z,40.04
2023-11-16T10:38:22.619Z,40.02
2023-11-16T10:40:55.258Z,39.96
2023-11-16T10:43:30.273Z,39.93
2023-11-16T10:46:03.180Z,39.94
2023-11-16T10:48:35.185Z,39.89
2023-11-16T10:51:07.526Z,39.88
2023-11-16T10:53:40.228Z,39.87
2023-11-16T10:56:13.345Z,39.84
2023-11-16T10:58:46.011Z,39.80
2023-11-16T11:01:19.749Z,39.73
2023-11-16T11:03:53.124Z,39.70
2023-11-16T11:06:26.553Z,39.66
2023-11-16T11:08:59.034Z,39.64
2023-11-16T11:11:30.760Z,39.61
2023-11-16T11:14:07.519Z,39.59
2023-11-16T11:16:40.491Z,39.56
2023-11-16T11:19:12.105Z,39.52
2023-11-16T11:21:52.699Z,39.48
2023-11-16T11:24:25.437Z,39.39
2023-11-16T11:26:57.905Z,39.36
2023-11-16T11:29:29.463Z,39.25
2023-11-16T11:32:13.127Z,39.28
2023-11-16T11:34:45.059Z,39.21
2023-11-16T11:37:17.246Z,39.20
2023-11-16T11:39:51.009Z,39.16
2023-11-16T11:42:26.132Z,39.10
2023-11-16T11:44:58.072Z,39.08
2023-11-16T11:47:30.352Z,39.02
2023-11-16T11:50:03.590Z,39.01
2023-11-16T11:52:36.490Z,38.94
2023-11-16T11:55:08.411Z,38.92
2023-11-16T11:57:40.495Z,38.93
2023-11-16T12:00:15.748Z,38.91
2023-11-16T12:02:49.517Z,38.91
2023-11-16T12:05:21.684Z,38.93
2023-11-16T12:08:02.266Z,38.90
2023-11-16T12:10:34.288Z,38.89
2023-11-16T12:13:08.711Z,38.91
2023-11-16T12:15:42.389Z,38.93
2023-11-16T12:18:17.114Z,38.94
2023-11-16T12:20:51.400Z,38.93
2023-11-16T12:23:25.212Z,38.95
2023-11-16T12:25:56.788Z,38.95
2023-11-16T12:28:28.384Z,38.95
2023-11-16T12:31:00.230Z,38.95
2023-11-16T12:33:31.978Z,38.97
2023-11-16T12:36:03.879Z,38.96
2023-11-16T12:38:35.453Z,38.95
2023-11-16T12:41:07.129Z,38.96
2023-11-16T12:43:39.705Z,38.98
2023-11-16T12:46:14.578Z,38.96
2023-11-16T12:48:46.843Z,38.95
2023-11-16T12:51:21.090Z,38.95
2023-11-16T12:53:53.033Z,38.96
2023-11-16T12:56:24.612Z,38.95
2023-11-16T12:58:58.283Z,38.95
2023-11-16T13:01:30.812Z,38.93
2023-11-16T13:04:06.579Z,38.95
2023-11-16T13:06:39.253Z,38.95
2023-11-16T13:09:12.143Z,38.94
2023-11-16T13:11:44.100Z,38.92
2023-11-16T13:14:15.672Z,38.94
2023-11-16T13:16:50.874Z,38.97
2023-11-16T13:19:22.516Z,38.94
2023-11-16T13:21:54.174Z,38.93
2023-11-16T13:24:25.878Z,38.95
2023-11-16T13:26:57.926Z,38.98
2023-11-16T13:29:29.497Z,39.04
2023-11-16T13:32:01.149Z,39.13
2023-11-16T13:34:33.398Z,39.23
2023-11-16T13:37:08.636Z,39.36
2023-11-16T13:39:41.446Z,39.49
2023-11-16T13:42:13.328Z,39.64
2023-11-16T13:44:45.356Z,39.70
2023-11-16T13:47:17.013Z,39.84
2023-11-16T13:49:48.634Z,40.00
2023-11-16T13:52:20.208Z,40.27
2023-11-16T13:54:51.810Z,40.71
2023-11-16T13:57:23.544Z,41.12
2023-11-16T13:59:55.158Z,41.53
2023-11-16T14:02:26.826Z,41.87
2023-11-16T14:04:58.440Z,42.30
2023-11-16T14:07:30.705Z,42.68
2023-11-16T14:10:12.875Z,43.17
2023-11-16T14:12:55.824Z,43.56
2023-11-16T14:15:28.773Z,43.60
2023-11-16T14:18:01.159Z,43.70
2023-11-16T14:20:32.915Z,43.76
2023-11-16T14:23:04.506Z,43.77
2023-11-16T14:25:39.620Z,43.84
2023-11-16T14:28:17.049Z,43.88
2023-11-16T14:30:48.723Z,43.86
2023-11-16T14:33:20.452Z,43.80
2023-11-16T14:35:52.059Z,43.73
2023-11-16T14:38:23.660Z,43.66
2023-11-16T14:40:55.230Z,43.63
2023-11-16T14:43:26.789Z,43.53
2023-11-16T14:45:59.982Z,43.47
2023-11-16T14:48:32.027Z,43.47
2023-11-16T14:51:03.783Z,43.39
2023-11-16T14:53:35.931Z,43.31
2023-11-16T14:56:08.836Z,43.27
2023-11-16T14:58:40.800Z,43.19
2023-11-16T15:01:12.454Z,43.11
2023-11-16T15:03:46.075Z,43.09
2023-11-16T15:06:17.754Z,43.02
2023-11-16T15:08:49.435Z,42.95
2023-11-16T15:11:22.887Z,42.88
2023-11-16T15:13:59.281Z,42.86
2023-11-16T15:16:41.553Z,42.80
2023-11-16T15:19:13.920Z,42.73
2023-11-16T15:21:46.878Z,42.69
2023-11-16T15:24:18.567Z,42.64
2023-11-16T15:26:51.607Z,42.60
2023-11-16T15:29:23.444Z,42.54
2023-11-16T15:31:55.116Z,42.49
2023-11-16T15:34:28.213Z,42.41
2023-11-16T15:36:59.997Z,42.37
2023-11-16T15:39:31.695Z,42.33
2023-11-16T15:42:05.496Z,42.30
2023-11-16T15:44:37.051Z,42.29
2023-11-16T15:47:08.636Z,42.23
2023-11-16T15:49:40.473Z,42.21
2023-11-16T15:52:12.088Z,42.20
2023-11-16T15:54:44.096Z,42.19
2023-11-16T15:57:15.697Z,42.15
2023-11-16T15:59:47.260Z,42.15
2023-11-16T16:02:18.953Z,42.13
2023-11-16T16:04:52.473Z,42.12
2023-11-16T16:07:24.121Z,42.12
2023-11-16T16:09:56.045Z,42.17
2023-11-16T16:12:27.724Z,42.20
2023-11-16T16:14:59.347Z,42.24
2023-11-16T16:17:31.055Z,42.25
2023-11-16T16:20:02.729Z,42.32
2023-11-16T16:22:34.398Z,42.35
2023-11-16T16:25:06.404Z,42.37
2023-11-16T16:27:38.950Z,42.37
2023-11-16T16:30:11.968Z,42.36
2023-11-16T16:32:44.723Z,42.33
2023-11-16T16:35:16.474Z,42.31
2023-11-16T16:37:48.043Z,42.31
2023-11-16T16:40:20.605Z,42.25
2023-11-16T16:42:52.253Z,42.23
2023-11-16T16:45:23.839Z,42.24
2023-11-16T16:48:03.356Z,42.22
2023-11-16T16:50:40.784Z,42.19
2023-11-16T16:53:12.433Z,42.17
2023-11-16T16:55:45.953Z,42.09
2023-11-16T16:58:17.617Z,42.04
2023-11-16T17:00:49.493Z,41.98
2023-11-16T17:03:21.234Z,41.94
2023-11-16T17:05:53.427Z,41.85
2023-11-16T17:08:24.984Z,41.80
2023-11-16T17:10:56.571Z,41.78
2023-11-16T17:13:28.193Z,41.72
2023-11-16T17:15:59.832Z,41.65
2023-11-16T17:18:31.505Z,41.57
2023-11-16T17:21:06.531Z,41.55
2023-11-16T17:23:38.920Z,41.57
2023-11-16T17:26:11.560Z,41.62
2023-11-16T17:28:43.150Z,41.63
2023-11-16T17:31:14.845Z,41.73
2023-11-16T17:33:46.635Z,41.80
2023-11-16T17:36:18.306Z,41.88
2023-11-16T17:38:49.924Z,41.96
2023-11-16T17:41:24.609Z,42.05
2023-11-16T17:43:58.171Z,42.14
2023-11-16T17:46:29.959Z,42.18
2023-11-16T17:49:01.847Z,42.26
2023-11-16T17:51:34.981Z,42.28
2023-11-16T17:54:07.990Z,42.28
2023-11-16T17:56:39.857Z,42.28
2023-11-16T17:59:11.529Z,42.26
2023-11-16T18:01:44.472Z,42.27
2023-11-16T18:04:16.264Z,42.23
2023-11-16T18:06:51.547Z,42.20
2023-11-16T18:09:23.687Z,42.20
2023-11-16T18:11:57.871Z,42.20
2023-11-16T18:14:29.470Z,42.19
2023-11-16T18:17:01.539Z,42.16
2023-11-16T18:19:33.460Z,42.10
2023-11-16T18:22:10.889Z,42.10
2023-11-16T18:24:42.640Z,42.12
2023-11-16T18:27:15.302Z,42.10
2023-11-16T18:29:47.569Z,42.10
2023-11-16T18:32:19.160Z,42.10
2023-11-16T18:34:51.219Z,42.10
2023-11-16T18:37:23.991Z,42.11
2023-11-16T18:39:55.543Z,42.10
2023-11-16T18:42:27.136Z,42.05
2023-11-16T18:44:58.732Z,42.07
2023-11-16T18:47:30.798Z,42.06
2023-11-16T18:50:04.287Z,42.05
2023-11-16T18:52:36.051Z,42.07
2023-11-16T18:55:07.934Z,42.10
2023-11-16T18:57:40.038Z,42.11
2023-11-16T19:00:12.777Z,42.08
2023-11-16T19:02:44.788Z,42.08
2023-11-16T19:05:19.214Z,42.09
2023-11-16T19:07:51.057Z,42.10
2023-11-16T19:10:23.475Z,42.10
2023-11-16T19:12:55.084Z,42.09
2023-11-16T19:15:26.744Z,42.09
2023-11-16T19:17:58.450Z,42.11
2023-11-16T19:20:30.146Z,42.11
2023-11-16T19:23:06.557Z,42.14
2023-11-16T19:25:38.783Z,42.14
2023-11-16T19:28:11.825Z,42.15
2023-11-16T19:30:44.258Z,42.19
2023-11-16T19:33:16.154Z,42.11
2023-11-16T19:35:48.221Z,42.11
2023-11-16T19:38:20.497Z,42.25
2023-11-16T19:40:52.245Z,42.34
2023-11-16T19:43:25.413Z,42.47
2023-11-16T19:45:57.685Z,42.51
2023-11-16T19:48:31.156Z,42.57
2023-11-16T19:51:02.900Z,42.59
2023-11-16T19:53:34.594Z,42.65
2023-11-16T19:56:09.844Z,42.76
2023-11-16T19:58:41.414Z,42.85
2023-11-16T20:01:14.071Z,42.91
2023-11-16T20:03:49.244Z,42.98
2023-11-16T20:06:23.827Z,43.01
2023-11-16T20:08:55.776Z,43.04
2023-11-16T20:11:30.896Z,43.09
2023-11-16T20:14:02.574Z,43.07
2023-11-16T20:16:34.253Z,43.10
2023-11-16T20:19:05.911Z,43.08
2023-11-16T20:21:38.721Z,43.10
2023-11-16T20:24:10.352Z,43.09
2023-11-16T20:26:41.911Z,43.08
2023-11-16T20:29:14.998Z,43.07
2023-11-16T20:31:47.378Z,43.05
2023-11-16T20:34:20.600Z,43.02
2023-11-16T20:36:52.301Z,43.00
2023-11-16T20:39:28.752Z,43.00
2023-11-16T20:42:00.549Z,42.99
2023-11-16T20:44:33.682Z,42.94
2023-11-16T20:47:05.617Z,42.89
2023-11-16T20:49:38.839Z,42.87
2023-11-16T20:52:10.455Z,42.81
2023-11-16T20:54:44.251Z,42.80
2023-11-16T20:57:22.904Z,42.77
2023-11-16T20:59:54.762Z,42.74
2023-11-16T21:02:26.477Z,42.72
2023-11-16T21:04:58.182Z,42.69
2023-11-16T21:07:29.788Z,42.66
2023-11-16T21:10:01.433Z,42.63
2023-11-16T21:12:33.076Z,42.59
2023-11-16T21:15:06.902Z,42.55
2023-11-16T21:17:38.984Z,42.51
2023-11-16T21:20:13.620Z,42.47
2023-11-16T21:22:45.782Z,42.42
2023-11-16T21:25:17.459Z,42.34
2023-11-16T21:27:49.248Z,42.33
2023-11-16T21:30:20.863Z,42.31
2023-11-16T21:32:53.140Z,42.27
2023-11-16T21:35:27.349Z,42.22
2023-11-16T21:37:59.279Z,42.18
2023-11-16T21:40:32.317Z,42.20
2023-11-16T21:43:07.136Z,42.13
2023-11-16T21:45:38.963Z,42.12
2023-11-16T21:48:11.193Z,42.12
2023-11-16T21:50:42.794Z,42.09
2023-11-16T21:53:14.456Z,42.04
2023-11-16T21:55:46.530Z,42.06
2023-11-16T21:58:18.209Z,42.04
2023-11-16T22:00:49.918Z,42.02
2023-11-16T22:03:21.768Z,42.01
2023-11-16T22:05:54.100Z,42.00
2023-11-16T22:08:25.909Z,41.96
2023-11-16T22:10:58.522Z,41.96
2023-11-16T22:13:30.300Z,41.92
2023-11-16T22:16:01.938Z,41.92
2023-11-16T22:18:35.857Z,41.94
2023-11-16T22:21:07.634Z,41.92
2023-11-16T22:23:39.517Z,41.90
2023-11-16T22:26:12.233Z,41.94
2023-11-16T22:28:45.137Z,41.91
2023-11-16T22:31:16.761Z,41.90
2023-11-16T22:33:48.379Z,41.90
2023-11-16T22:36:20.112Z,41.89
2023-11-16T22:38:51.651Z,41.87
2023-11-16T22:41:23.347Z,41.89
2023-11-16T22:43:55.004Z,41.88
2023-11-16T22:46:26.636Z,41.90
2023-11-16T22:48:58.621Z,41.82
2023-11-16T22:51:33.729Z,41.85
2023-11-16T22:54:05.421Z,41.83
2023-11-16T22:56:36.951Z,41.86
2023-11-16T22:59:09.611Z,41.85
2023-11-16T23:01:45.139Z,41.85
2023-11-16T23:04:17.355Z,41.89
2023-11-16T23:06:51.017Z,41.90
2023-11-16T23:09:22.615Z,41.90
2023-11-16T23:11:54.213Z,41.90
2023-11-16T23:14:25.836Z,41.90
2023-11-16T23:16:59.975Z,41.90
2023-11-16T23:19:31.559Z,41.93
2023-11-16T23:22:04.200Z,41.92
2023-11-16T23:24:36.745Z,41.90
2023-11-16T23:27:10.118Z,41.91
2023-11-16T23:29:43.617Z,41.97
2023-11-16T23:32:15.213Z,42.00
2023-11-16T23:34:47.553Z,42.00
2023-11-16T23:37:19.154Z,42.05
2023-11-16T23:39:51.431Z,42.13
2023-11-16T23:42:23.995Z,42.19
2023-11-16T23:44:56.640Z,42.27
2023-11-16T23:47:28.287Z,42.38
2023-11-16T23:49:59.944Z,42.55
2023-11-16T23:52:33.107Z,42.64
2023-11-16T23:55:07.107Z,42.77
2023-11-16T23:57:40.658Z,42.88
